This is the latest recevied weather packets stored in our database for station/object KF6GPE. If no packets are shown the sender has not sent any weather packets the latest 10 day(s).
| Time | Temp. | Humidity | Pressure | Rain* | Wind** | Luminosity | Snow |
|---|---|---|---|---|---|---|---|
| 1777359603 | 7.22° C | 96% | 992.3 hPa | 0 mm | - | 1000 W/m² | - |
| 1777359003 | 7.22° C | 96% | 992.3 hPa | 0 mm | - | 1000 W/m² | - |
| 1777357802 | 7.78° C | 96% | 992.3 hPa | 0 mm | - | 1000 W/m² | - |
| 1777357203 | 7.78° C | 95% | 992.3 hPa | 0 mm | - | 1000 W/m² | - |
| 1777356603 | 7.78° C | 95% | 992.3 hPa | 0 mm | - | 1000 W/m² | - |
| 1777356004 | 7.78° C | 95% | 992.3 hPa | 0 mm | - | 1000 W/m² | - |
| 1777354803 | 8.33° C | 94% | 992.3 hPa | 0 mm | - | 1000 W/m² | - |
| 1777354202 | 8.33° C | 93% | 992.2 hPa | 0 mm | - | 1000 W/m² | - |
| 1777353603 | 8.33° C | 93% | 992.2 hPa | 0 mm | - | 1000 W/m² | - |
| 1777353003 | 8.33° C | 92% | 992.2 hPa | 0 mm | - | 1000 W/m² | - |
| 1777352403 | 8.89° C | 92% | 992.2 hPa | 0 mm | - | 1000 W/m² | - |
| 1777351804 | 8.89° C | 91% | 992.1 hPa | 0 mm | - | 1000 W/m² | - |
| 1777351204 | 8.89° C | 91% | 992.1 hPa | 0 mm | - | 1000 W/m² | - |
| 1777350603 | 8.89° C | 91% | 992 hPa | 0 mm | - | 1000 W/m² | - |
| 1777349402 | 9.44° C | 91% | 991.8 hPa | 0 mm | - | 1000 W/m² | - |
| 1777348803 | 9.44° C | 90% | 991.8 hPa | 0 mm | - | 1000 W/m² | - |
| 1777348203 | 9.44° C | 89% | 991.6 hPa | 0 mm | - | 1000 W/m² | - |
| 1777347003 | 10° C | 88% | 991.4 hPa | 0 mm | - | 1000 W/m² | - |
| 1777345803 | 10.56° C | 86% | 991.2 hPa | 0 mm | - | 1000 W/m² | - |
| 1777343403 | 11.67° C | 81% | 990.8 hPa | 0 mm | - | 1000 W/m² | - |
| 1777342203 | 11.67° C | 79% | 990.7 hPa | 0 mm | - | 1000 W/m² | - |
| 1777335003 | 14.44° C | 70% | 989.9 hPa | 0 mm | - | 1006 W/m² | - |
* Rain latest hour (hover to see other rain measurements)
** Current wind speed in m/s (hover to see current wind gust speed)